sensor_id;sensor_type;location;lat;lon;timestamp;temperature;humidity
16271;DHT22;8243;49.048;8.396;2023-02-26T00:02:25;0.50;34.20
16271;DHT22;8243;49.048;8.396;2023-02-26T00:04:50;0.50;35.00
16271;DHT22;8243;49.048;8.396;2023-02-26T00:07:16;0.30;36.00
16271;DHT22;8243;49.048;8.396;2023-02-26T00:09:42;0.00;35.70
16271;DHT22;8243;49.048;8.396;2023-02-26T00:12:10;0.30;36.50
16271;DHT22;8243;49.048;8.396;2023-02-26T00:14:36;0.30;37.10
16271;DHT22;8243;49.048;8.396;2023-02-26T00:19:49;0.00;39.80
16271;DHT22;8243;49.048;8.396;2023-02-26T00:22:15;-0.10;42.20
16271;DHT22;8243;49.048;8.396;2023-02-26T00:24:41;-0.40;43.50
16271;DHT22;8243;49.048;8.396;2023-02-26T00:27:06;-0.60;44.40
16271;DHT22;8243;49.048;8.396;2023-02-26T00:29:34;-0.40;45.20
16271;DHT22;8243;49.048;8.396;2023-02-26T00:31:59;-0.70;45.40
16271;DHT22;8243;49.048;8.396;2023-02-26T00:34:25;-0.50;45.10
16271;DHT22;8243;49.048;8.396;2023-02-26T00:40:13;-0.50;45.50
16271;DHT22;8243;49.048;8.396;2023-02-26T00:42:41;-0.30;45.40
16271;DHT22;8243;49.048;8.396;2023-02-26T00:45:07;-0.30;45.70
16271;DHT22;8243;49.048;8.396;2023-02-26T00:50:23;-0.20;44.70
16271;DHT22;8243;49.048;8.396;2023-02-26T00:53:10;-0.30;44.20
16271;DHT22;8243;49.048;8.396;2023-02-26T00:55:37;-0.20;43.70
16271;DHT22;8243;49.048;8.396;2023-02-26T00:58:03;-0.10;43.50
16271;DHT22;8243;49.048;8.396;2023-02-26T01:00:29;-0.20;43.50
16271;DHT22;8243;49.048;8.396;2023-02-26T01:02:54;-0.10;43.60
16271;DHT22;8243;49.048;8.396;2023-02-26T01:05:20;-0.10;43.70
16271;DHT22;8243;49.048;8.396;2023-02-26T01:07:56;-0.10;44.20
16271;DHT22;8243;49.048;8.396;2023-02-26T01:10:24;-0.20;44.70
16271;DHT22;8243;49.048;8.396;2023-02-26T01:12:50;-0.40;45.20
16271;DHT22;8243;49.048;8.396;2023-02-26T01:15:16;-0.30;46.60
16271;DHT22;8243;49.048;8.396;2023-02-26T01:17:54;-0.60;47.30
16271;DHT22;8243;49.048;8.396;2023-02-26T01:20:23;-0.50;47.90
16271;DHT22;8243;49.048;8.396;2023-02-26T01:23:09;-0.80;49.30
16271;DHT22;8243;49.048;8.396;2023-02-26T01:25:47;-0.70;50.10
16271;DHT22;8243;49.048;8.396;2023-02-26T01:28:14;-0.90;51.90
16271;DHT22;8243;49.048;8.396;2023-02-26T01:30:40;-1.00;53.00
16271;DHT22;8243;49.048;8.396;2023-02-26T01:36:07;-0.90;55.80
16271;DHT22;8243;49.048;8.396;2023-02-26T01:41:37;-0.90;58.60
16271;DHT22;8243;49.048;8.396;2023-02-26T01:45:01;-1.10;58.80
16271;DHT22;8243;49.048;8.396;2023-02-26T01:49:55;-1.20;60.50
16271;DHT22;8243;49.048;8.396;2023-02-26T01:55:17;-1.20;61.50
16271;DHT22;8243;49.048;8.396;2023-02-26T01:57:43;-1.40;62.50
16271;DHT22;8243;49.048;8.396;2023-02-26T02:00:10;-1.30;63.70
16271;DHT22;8243;49.048;8.396;2023-02-26T02:02:36;-1.40;64.90
16271;DHT22;8243;49.048;8.396;2023-02-26T02:05:06;-1.20;66.40
16271;DHT22;8243;49.048;8.396;2023-02-26T02:07:32;-1.40;67.30
16271;DHT22;8243;49.048;8.396;2023-02-26T02:09:57;-1.40;68.00
16271;DHT22;8243;49.048;8.396;2023-02-26T02:12:34;-1.50;68.70
16271;DHT22;8243;49.048;8.396;2023-02-26T02:17:45;-1.50;70.50
16271;DHT22;8243;49.048;8.396;2023-02-26T02:31:17;-1.90;73.10
16271;DHT22;8243;49.048;8.396;2023-02-26T02:33:59;-1.90;73.50
16271;DHT22;8243;49.048;8.396;2023-02-26T02:36:33;-1.80;75.00
16271;DHT22;8243;49.048;8.396;2023-02-26T02:39:07;-2.00;75.70
16271;DHT22;8243;49.048;8.396;2023-02-26T02:41:39;-2.10;77.00
16271;DHT22;8243;49.048;8.396;2023-02-26T02:44:11;-2.20;79.30
16271;DHT22;8243;49.048;8.396;2023-02-26T02:46:39;-2.40;81.00
16271;DHT22;8243;49.048;8.396;2023-02-26T02:49:17;-2.20;86.40
16271;DHT22;8243;49.048;8.396;2023-02-26T02:51:51;-2.40;89.30
16271;DHT22;8243;49.048;8.396;2023-02-26T02:54:37;-2.30;91.10
16271;DHT22;8243;49.048;8.396;2023-02-26T02:57:19;-2.40;93.40
16271;DHT22;8243;49.048;8.396;2023-02-26T02:59:49;-2.60;96.10
16271;DHT22;8243;49.048;8.396;2023-02-26T03:02:31;-2.60;98.60
16271;DHT22;8243;49.048;8.396;2023-02-26T03:04:58;-2.50;99.10
16271;DHT22;8243;49.048;8.396;2023-02-26T03:07:24;-2.60;99.90
16271;DHT22;8243;49.048;8.396;2023-02-26T03:09:50;-2.40;99.90
16271;DHT22;8243;49.048;8.396;2023-02-26T03:12:16;-2.60;99.90
16271;DHT22;8243;49.048;8.396;2023-02-26T03:14:42;-2.40;99.90
16271;DHT22;8243;49.048;8.396;2023-02-26T03:19:58;-2.20;99.90
16271;DHT22;8243;49.048;8.396;2023-02-26T03:22:38;-2.30;98.40
16271;DHT22;8243;49.048;8.396;2023-02-26T03:25:13;-2.20;96.80
16271;DHT22;8243;49.048;8.396;2023-02-26T03:27:55;-2.10;95.60
16271;DHT22;8243;49.048;8.396;2023-02-26T03:30:29;-2.30;95.50
16271;DHT22;8243;49.048;8.396;2023-02-26T03:33:02;-2.20;97.20
16271;DHT22;8243;49.048;8.396;2023-02-26T03:35:35;-2.20;97.70
16271;DHT22;8243;49.048;8.396;2023-02-26T03:38:06;-2.30;97.60
16271;DHT22;8243;49.048;8.396;2023-02-26T03:40:40;-2.40;98.30
16271;DHT22;8243;49.048;8.396;2023-02-26T03:43:12;-2.60;99.80
16271;DHT22;8243;49.048;8.396;2023-02-26T03:45:42;-2.40;99.90
16271;DHT22;8243;49.048;8.396;2023-02-26T03:48:12;-2.40;99.90
16271;DHT22;8243;49.048;8.396;2023-02-26T03:50:47;-2.50;99.90
16271;DHT22;8243;49.048;8.396;2023-02-26T03:53:17;-2.30;99.90
16271;DHT22;8243;49.048;8.396;2023-02-26T03:58:30;-2.20;95.60
16271;DHT22;8243;49.048;8.396;2023-02-26T04:01:03;-1.90;92.60
16271;DHT22;8243;49.048;8.396;2023-02-26T04:05:55;-1.80;90.00
16271;DHT22;8243;49.048;8.396;2023-02-26T04:08:21;-1.80;89.10
16271;DHT22;8243;49.048;8.396;2023-02-26T04:10:57;-1.70;87.80
16271;DHT22;8243;49.048;8.396;2023-02-26T04:13:23;-1.50;86.90
16271;DHT22;8243;49.048;8.396;2023-02-26T04:15:49;-1.50;86.10
16271;DHT22;8243;49.048;8.396;2023-02-26T04:18:14;-1.60;85.10
16271;DHT22;8243;49.048;8.396;2023-02-26T04:20:40;-1.60;84.60
16271;DHT22;8243;49.048;8.396;2023-02-26T04:23:05;-1.50;84.40
16271;DHT22;8243;49.048;8.396;2023-02-26T04:25:31;-1.60;83.90
16271;DHT22;8243;49.048;8.396;2023-02-26T04:27:56;-1.40;83.90
16271;DHT22;8243;49.048;8.396;2023-02-26T04:30:22;-1.40;83.40
16271;DHT22;8243;49.048;8.396;2023-02-26T04:32:47;-1.60;83.70
16271;DHT22;8243;49.048;8.396;2023-02-26T04:35:13;-1.50;84.40
16271;DHT22;8243;49.048;8.396;2023-02-26T04:37:39;-1.30;85.00
16271;DHT22;8243;49.048;8.396;2023-02-26T04:40:05;-1.30;84.90
16271;DHT22;8243;49.048;8.396;2023-02-26T04:42:30;-1.60;85.10
16271;DHT22;8243;49.048;8.396;2023-02-26T04:44:56;-1.50;85.70
16271;DHT22;8243;49.048;8.396;2023-02-26T04:47:21;-1.50;86.30
16271;DHT22;8243;49.048;8.396;2023-02-26T04:49:47;-1.60;86.20
16271;DHT22;8243;49.048;8.396;2023-02-26T04:52:13;-1.60;86.00
16271;DHT22;8243;49.048;8.396;2023-02-26T04:54:38;-1.60;86.00
16271;DHT22;8243;49.048;8.396;2023-02-26T04:57:05;-1.50;86.90
16271;DHT22;8243;49.048;8.396;2023-02-26T04:59:31;-1.60;87.40
16271;DHT22;8243;49.048;8.396;2023-02-26T05:01:56;-1.60;88.10
16271;DHT22;8243;49.048;8.396;2023-02-26T05:04:22;-1.60;89.90
16271;DHT22;8243;49.048;8.396;2023-02-26T05:06:48;-1.70;90.10
16271;DHT22;8243;49.048;8.396;2023-02-26T05:09:13;-1.50;90.20
16271;DHT22;8243;49.048;8.396;2023-02-26T05:11:39;-1.60;90.30
16271;DHT22;8243;49.048;8.396;2023-02-26T05:14:04;-1.50;90.00
16271;DHT22;8243;49.048;8.396;2023-02-26T05:16:30;-1.40;89.70
16271;DHT22;8243;49.048;8.396;2023-02-26T05:18:55;-1.40;89.10
16271;DHT22;8243;49.048;8.396;2023-02-26T05:21:21;-1.50;88.70
16271;DHT22;8243;49.048;8.396;2023-02-26T05:23:47;-1.40;88.40
16271;DHT22;8243;49.048;8.396;2023-02-26T05:26:12;-1.50;88.30
16271;DHT22;8243;49.048;8.396;2023-02-26T05:28:38;-1.30;88.50
16271;DHT22;8243;49.048;8.396;2023-02-26T05:31:03;-1.30;88.80
16271;DHT22;8243;49.048;8.396;2023-02-26T05:33:29;-1.50;88.70
16271;DHT22;8243;49.048;8.396;2023-02-26T05:35:55;-1.50;89.20
16271;DHT22;8243;49.048;8.396;2023-02-26T05:38:21;-1.50;89.80
16271;DHT22;8243;49.048;8.396;2023-02-26T05:40:47;-1.50;90.10
16271;DHT22;8243;49.048;8.396;2023-02-26T05:43:13;-1.70;90.20
16271;DHT22;8243;49.048;8.396;2023-02-26T05:45:38;-1.70;90.40
16271;DHT22;8243;49.048;8.396;2023-02-26T05:48:04;-1.50;91.10
16271;DHT22;8243;49.048;8.396;2023-02-26T05:50:29;-1.50;91.10
16271;DHT22;8243;49.048;8.396;2023-02-26T05:52:55;-1.70;91.10
16271;DHT22;8243;49.048;8.396;2023-02-26T05:55:21;-1.60;91.40
16271;DHT22;8243;49.048;8.396;2023-02-26T05:57:47;-1.50;91.80
16271;DHT22;8243;49.048;8.396;2023-02-26T06:00:13;-1.60;91.70
16271;DHT22;8243;49.048;8.396;2023-02-26T06:02:39;-1.50;91.70
16271;DHT22;8243;49.048;8.396;2023-02-26T06:07:41;-1.40;91.80
16271;DHT22;8243;49.048;8.396;2023-02-26T06:10:07;-1.60;91.80
16271;DHT22;8243;49.048;8.396;2023-02-26T06:12:33;-1.60;91.90
16271;DHT22;8243;49.048;8.396;2023-02-26T06:14:59;-1.50;92.00
16271;DHT22;8243;49.048;8.396;2023-02-26T06:17:25;-1.30;92.30
16271;DHT22;8243;49.048;8.396;2023-02-26T06:19:51;-1.60;92.50
16271;DHT22;8243;49.048;8.396;2023-02-26T06:22:17;-1.50;92.60
16271;DHT22;8243;49.048;8.396;2023-02-26T06:24:42;-1.20;92.80
16271;DHT22;8243;49.048;8.396;2023-02-26T06:27:08;-1.40;92.80
16271;DHT22;8243;49.048;8.396;2023-02-26T06:29:33;-1.50;92.70
16271;DHT22;8243;49.048;8.396;2023-02-26T06:32:02;-1.20;92.80
16271;DHT22;8243;49.048;8.396;2023-02-26T06:34:27;-1.20;92.70
16271;DHT22;8243;49.048;8.396;2023-02-26T06:36:53;-1.20;92.30
16271;DHT22;8243;49.048;8.396;2023-02-26T06:39:18;-1.30;92.20
16271;DHT22;8243;49.048;8.396;2023-02-26T06:41:44;-1.20;91.80
16271;DHT22;8243;49.048;8.396;2023-02-26T06:44:10;-1.20;91.50
16271;DHT22;8243;49.048;8.396;2023-02-26T06:46:35;-1.10;90.60
16271;DHT22;8243;49.048;8.396;2023-02-26T06:49:01;-1.10;90.60
16271;DHT22;8243;49.048;8.396;2023-02-26T06:51:27;-0.90;90.70
16271;DHT22;8243;49.048;8.396;2023-02-26T06:53:53;-1.10;90.60
16271;DHT22;8243;49.048;8.396;2023-02-26T06:56:19;-1.10;90.40
16271;DHT22;8243;49.048;8.396;2023-02-26T06:58:44;-0.80;90.40
16271;DHT22;8243;49.048;8.396;2023-02-26T07:01:10;-1.00;90.40
16271;DHT22;8243;49.048;8.396;2023-02-26T07:03:35;-1.10;89.80
16271;DHT22;8243;49.048;8.396;2023-02-26T07:06:01;-0.90;89.60
16271;DHT22;8243;49.048;8.396;2023-02-26T07:08:26;-0.90;89.40
16271;DHT22;8243;49.048;8.396;2023-02-26T07:10:52;-0.70;88.90
16271;DHT22;8243;49.048;8.396;2023-02-26T07:13:18;-0.90;88.40
16271;DHT22;8243;49.048;8.396;2023-02-26T07:15:43;-0.60;87.40
16271;DHT22;8243;49.048;8.396;2023-02-26T07:18:09;-0.60;86.60
16271;DHT22;8243;49.048;8.396;2023-02-26T07:20:34;-0.60;85.10
16271;DHT22;8243;49.048;8.396;2023-02-26T07:23:00;-0.40;85.20
16271;DHT22;8243;49.048;8.396;2023-02-26T07:25:27;-0.50;84.50
16271;DHT22;8243;49.048;8.396;2023-02-26T07:27:53;-0.30;83.80
16271;DHT22;8243;49.048;8.396;2023-02-26T07:30:19;-0.30;83.70
16271;DHT22;8243;49.048;8.396;2023-02-26T07:32:44;-0.20;81.80
16271;DHT22;8243;49.048;8.396;2023-02-26T07:35:10;-0.20;81.00
16271;DHT22;8243;49.048;8.396;2023-02-26T07:37:36;-0.10;80.80
16271;DHT22;8243;49.048;8.396;2023-02-26T07:40:02;0.10;79.60
16271;DHT22;8243;49.048;8.396;2023-02-26T07:42:27;0.10;78.00
16271;DHT22;8243;49.048;8.396;2023-02-26T07:44:53;0.10;77.90
16271;DHT22;8243;49.048;8.396;2023-02-26T07:47:18;0.70;74.10
16271;DHT22;8243;49.048;8.396;2023-02-26T07:49:44;1.20;69.60
16271;DHT22;8243;49.048;8.396;2023-02-26T07:52:09;2.10;60.10
16271;DHT22;8243;49.048;8.396;2023-02-26T07:54:35;2.30;57.00
16271;DHT22;8243;49.048;8.396;2023-02-26T07:57:01;2.50;55.10
16271;DHT22;8243;49.048;8.396;2023-02-26T07:59:27;1.90;56.60
16271;DHT22;8243;49.048;8.396;2023-02-26T08:01:52;1.60;56.80
16271;DHT22;8243;49.048;8.396;2023-02-26T08:04:18;1.60;56.60
16271;DHT22;8243;49.048;8.396;2023-02-26T08:06:44;1.90;56.20
16271;DHT22;8243;49.048;8.396;2023-02-26T08:09:10;2.10;56.40
16271;DHT22;8243;49.048;8.396;2023-02-26T08:11:36;2.80;53.00
16271;DHT22;8243;49.048;8.396;2023-02-26T08:14:05;3.40;51.00
16271;DHT22;8243;49.048;8.396;2023-02-26T08:16:31;3.20;46.80
16271;DHT22;8243;49.048;8.396;2023-02-26T08:18:56;2.60;46.80
16271;DHT22;8243;49.048;8.396;2023-02-26T08:21:22;2.10;48.60
16271;DHT22;8243;49.048;8.396;2023-02-26T08:23:48;1.80;50.60
16271;DHT22;8243;49.048;8.396;2023-02-26T08:26:14;1.50;51.10
16271;DHT22;8243;49.048;8.396;2023-02-26T08:28:40;1.50;52.10
16271;DHT22;8243;49.048;8.396;2023-02-26T08:31:06;1.60;54.10
16271;DHT22;8243;49.048;8.396;2023-02-26T08:33:32;1.60;54.40
16271;DHT22;8243;49.048;8.396;2023-02-26T08:35:58;1.70;54.50
16271;DHT22;8243;49.048;8.396;2023-02-26T08:38:27;1.80;51.80
16271;DHT22;8243;49.048;8.396;2023-02-26T08:40:54;1.80;53.00
16271;DHT22;8243;49.048;8.396;2023-02-26T08:43:20;1.50;52.60
16271;DHT22;8243;49.048;8.396;2023-02-26T08:45:45;1.30;53.30
16271;DHT22;8243;49.048;8.396;2023-02-26T08:48:11;1.40;54.10
16271;DHT22;8243;49.048;8.396;2023-02-26T08:50:37;1.40;51.70
16271;DHT22;8243;49.048;8.396;2023-02-26T08:53:03;1.60;52.00
16271;DHT22;8243;49.048;8.396;2023-02-26T08:55:28;1.70;52.30
16271;DHT22;8243;49.048;8.396;2023-02-26T08:57:54;1.80;50.40
16271;DHT22;8243;49.048;8.396;2023-02-26T09:00:20;2.00;49.00
16271;DHT22;8243;49.048;8.396;2023-02-26T09:02:45;1.90;48.70
16271;DHT22;8243;49.048;8.396;2023-02-26T09:05:11;1.90;49.00
16271;DHT22;8243;49.048;8.396;2023-02-26T09:07:37;2.10;48.70
16271;DHT22;8243;49.048;8.396;2023-02-26T09:10:04;1.80;49.60
16271;DHT22;8243;49.048;8.396;2023-02-26T09:12:31;1.80;50.30
16271;DHT22;8243;49.048;8.396;2023-02-26T09:15:07;1.60;49.00
16271;DHT22;8243;49.048;8.396;2023-02-26T09:17:33;1.70;49.20
16271;DHT22;8243;49.048;8.396;2023-02-26T09:19:59;1.90;49.10
16271;DHT22;8243;49.048;8.396;2023-02-26T09:22:25;2.40;48.50
16271;DHT22;8243;49.048;8.396;2023-02-26T09:24:51;2.30;46.00
16271;DHT22;8243;49.048;8.396;2023-02-26T09:27:16;2.80;45.00
16271;DHT22;8243;49.048;8.396;2023-02-26T09:29:42;2.80;43.00
16271;DHT22;8243;49.048;8.396;2023-02-26T09:32:08;3.00;43.00
16271;DHT22;8243;49.048;8.396;2023-02-26T09:34:35;3.20;40.80
16271;DHT22;8243;49.048;8.396;2023-02-26T09:37:05;3.20;40.40
16271;DHT22;8243;49.048;8.396;2023-02-26T09:39:31;3.10;40.10
16271;DHT22;8243;49.048;8.396;2023-02-26T09:42:02;2.50;40.80
16271;DHT22;8243;49.048;8.396;2023-02-26T09:44:35;2.20;41.10
16271;DHT22;8243;49.048;8.396;2023-02-26T09:47:12;2.10;42.40
16271;DHT22;8243;49.048;8.396;2023-02-26T09:49:55;2.20;40.40
16271;DHT22;8243;49.048;8.396;2023-02-26T09:55:28;2.10;41.00
16271;DHT22;8243;49.048;8.396;2023-02-26T09:57:58;1.90;40.40
16271;DHT22;8243;49.048;8.396;2023-02-26T10:00:46;2.00;40.40
16271;DHT22;8243;49.048;8.396;2023-02-26T10:09:10;2.40;39.50
16271;DHT22;8243;49.048;8.396;2023-02-26T10:14:18;2.70;38.90
16271;DHT22;8243;49.048;8.396;2023-02-26T10:16:51;2.40;37.70
16271;DHT22;8243;49.048;8.396;2023-02-26T10:19:19;2.30;37.60
16271;DHT22;8243;49.048;8.396;2023-02-26T10:24:42;2.30;37.30
16271;DHT22;8243;49.048;8.396;2023-02-26T10:27:14;2.40;35.70
16271;DHT22;8243;49.048;8.396;2023-02-26T10:29:59;2.40;35.20
16271;DHT22;8243;49.048;8.396;2023-02-26T10:32:37;2.20;34.50
16271;DHT22;8243;49.048;8.396;2023-02-26T10:35:10;2.20;34.90
16271;DHT22;8243;49.048;8.396;2023-02-26T10:42:49;2.20;35.40
16271;DHT22;8243;49.048;8.396;2023-02-26T10:50:56;2.20;35.50
16271;DHT22;8243;49.048;8.396;2023-02-26T10:53:23;2.20;36.00
16271;DHT22;8243;49.048;8.396;2023-02-26T10:56:26;2.30;35.20
16271;DHT22;8243;49.048;8.396;2023-02-26T10:58:45;2.60;35.20
16271;DHT22;8243;49.048;8.396;2023-02-26T11:01:16;2.40;34.70
16271;DHT22;8243;49.048;8.396;2023-02-26T11:03:45;2.40;35.10
16271;DHT22;8243;49.048;8.396;2023-02-26T11:06:17;2.40;35.20
16271;DHT22;8243;49.048;8.396;2023-02-26T11:08:46;2.70;35.60
16271;DHT22;8243;49.048;8.396;2023-02-26T11:11:38;2.40;35.10
16271;DHT22;8243;49.048;8.396;2023-02-26T11:14:05;2.70;35.40
16271;DHT22;8243;49.048;8.396;2023-02-26T11:16:33;2.70;34.90
16271;DHT22;8243;49.048;8.396;2023-02-26T11:19:00;2.90;34.00
16271;DHT22;8243;49.048;8.396;2023-02-26T11:21:33;2.70;33.00
16271;DHT22;8243;49.048;8.396;2023-02-26T11:24:10;2.80;32.90
16271;DHT22;8243;49.048;8.396;2023-02-26T11:26:38;2.70;33.50
16271;DHT22;8243;49.048;8.396;2023-02-26T11:29:14;2.80;34.30
16271;DHT22;8243;49.048;8.396;2023-02-26T11:31:40;3.00;34.40
16271;DHT22;8243;49.048;8.396;2023-02-26T11:34:09;2.60;34.10
16271;DHT22;8243;49.048;8.396;2023-02-26T11:36:41;2.80;34.40
16271;DHT22;8243;49.048;8.396;2023-02-26T11:39:17;2.60;34.50
16271;DHT22;8243;49.048;8.396;2023-02-26T11:41:45;2.90;34.60
16271;DHT22;8243;49.048;8.396;2023-02-26T11:44:19;3.00;34.30
16271;DHT22;8243;49.048;8.396;2023-02-26T11:46:55;3.00;33.00
16271;DHT22;8243;49.048;8.396;2023-02-26T11:49:25;2.90;33.00
16271;DHT22;8243;49.048;8.396;2023-02-26T11:52:42;3.10;33.40
16271;DHT22;8243;49.048;8.396;2023-02-26T11:55:20;2.80;32.70
16271;DHT22;8243;49.048;8.396;2023-02-26T11:57:51;3.10;32.60
16271;DHT22;8243;49.048;8.396;2023-02-26T12:00:23;3.10;31.50
16271;DHT22;8243;49.048;8.396;2023-02-26T12:02:49;3.40;30.60
16271;DHT22;8243;49.048;8.396;2023-02-26T12:05:16;3.30;30.50
16271;DHT22;8243;49.048;8.396;2023-02-26T12:07:42;3.30;30.00
16271;DHT22;8243;49.048;8.396;2023-02-26T12:10:22;3.20;30.00
16271;DHT22;8243;49.048;8.396;2023-02-26T12:16:07;3.20;30.10
16271;DHT22;8243;49.048;8.396;2023-02-26T12:21:42;3.20;30.10
16271;DHT22;8243;49.048;8.396;2023-02-26T12:29:51;3.30;30.00
16271;DHT22;8243;49.048;8.396;2023-02-26T12:32:38;2.90;29.90
16271;DHT22;8243;49.048;8.396;2023-02-26T12:38:18;3.10;30.50
16271;DHT22;8243;49.048;8.396;2023-02-26T12:41:13;3.10;30.60
16271;DHT22;8243;49.048;8.396;2023-02-26T12:43:54;3.20;29.90
16271;DHT22;8243;49.048;8.396;2023-02-26T12:52:34;3.10;29.40
16271;DHT22;8243;49.048;8.396;2023-02-26T13:01:17;3.20;29.70
16271;DHT22;8243;49.048;8.396;2023-02-26T13:07:00;3.20;30.00
16271;DHT22;8243;49.048;8.396;2023-02-26T13:09:51;3.20;29.70
16271;DHT22;8243;49.048;8.396;2023-02-26T13:12:34;3.30;28.70
16271;DHT22;8243;49.048;8.396;2023-02-26T13:18:25;3.20;28.50
16271;DHT22;8243;49.048;8.396;2023-02-26T13:20:56;3.70;28.00
16271;DHT22;8243;49.048;8.396;2023-02-26T13:23:30;3.70;27.50
16271;DHT22;8243;49.048;8.396;2023-02-26T13:26:01;3.90;26.10
16271;DHT22;8243;49.048;8.396;2023-02-26T13:31:00;3.90;25.60
16271;DHT22;8243;49.048;8.396;2023-02-26T13:33:30;3.80;25.20
16271;DHT22;8243;49.048;8.396;2023-02-26T13:35:57;3.80;24.90
16271;DHT22;8243;49.048;8.396;2023-02-26T13:41:06;3.80;24.40
16271;DHT22;8243;49.048;8.396;2023-02-26T13:49:08;3.70;23.10
16271;DHT22;8243;49.048;8.396;2023-02-26T13:51:42;4.00;23.40
16271;DHT22;8243;49.048;8.396;2023-02-26T14:00:06;4.10;21.30
16271;DHT22;8243;49.048;8.396;2023-02-26T14:02:46;4.00;18.60
16271;DHT22;8243;49.048;8.396;2023-02-26T14:05:31;4.10;18.70
16271;DHT22;8243;49.048;8.396;2023-02-26T14:10:31;4.00;19.40
16271;DHT22;8243;49.048;8.396;2023-02-26T14:13:10;3.90;19.60
16271;DHT22;8243;49.048;8.396;2023-02-26T14:16:01;4.30;19.90
16271;DHT22;8243;49.048;8.396;2023-02-26T14:21:34;4.20;19.00
16271;DHT22;8243;49.048;8.396;2023-02-26T14:24:34;4.30;19.30
16271;DHT22;8243;49.048;8.396;2023-02-26T14:29:39;4.00;18.90
16271;DHT22;8243;49.048;8.396;2023-02-26T14:34:41;3.90;19.10
16271;DHT22;8243;49.048;8.396;2023-02-26T14:37:12;4.00;19.40
16271;DHT22;8243;49.048;8.396;2023-02-26T14:39:44;4.10;19.10
16271;DHT22;8243;49.048;8.396;2023-02-26T14:42:17;4.10;19.10
16271;DHT22;8243;49.048;8.396;2023-02-26T14:44:50;4.20;18.90
16271;DHT22;8243;49.048;8.396;2023-02-26T14:47:18;3.90;18.70
16271;DHT22;8243;49.048;8.396;2023-02-26T14:49:45;3.90;18.50
16271;DHT22;8243;49.048;8.396;2023-02-26T14:52:34;4.00;18.90
16271;DHT22;8243;49.048;8.396;2023-02-26T14:55:39;4.00;18.80
16271;DHT22;8243;49.048;8.396;2023-02-26T14:58:41;4.00;18.10
16271;DHT22;8243;49.048;8.396;2023-02-26T15:04:18;4.00;17.90
16271;DHT22;8243;49.048;8.396;2023-02-26T15:12:28;3.70;18.40
16271;DHT22;8243;49.048;8.396;2023-02-26T15:20:43;3.90;19.20
16271;DHT22;8243;49.048;8.396;2023-02-26T15:23:41;3.70;18.80
16271;DHT22;8243;49.048;8.396;2023-02-26T15:26:19;3.90;18.80
16271;DHT22;8243;49.048;8.396;2023-02-26T15:28:48;4.00;18.60
16271;DHT22;8243;49.048;8.396;2023-02-26T15:31:17;3.90;17.90
16271;DHT22;8243;49.048;8.396;2023-02-26T15:33:43;3.90;17.80
16271;DHT22;8243;49.048;8.396;2023-02-26T15:36:15;3.80;18.00
16271;DHT22;8243;49.048;8.396;2023-02-26T15:38:47;4.00;18.90
16271;DHT22;8243;49.048;8.396;2023-02-26T15:41:13;3.80;18.40
16271;DHT22;8243;49.048;8.396;2023-02-26T15:43:45;3.90;17.90
16271;DHT22;8243;49.048;8.396;2023-02-26T15:46:13;3.90;18.10
16271;DHT22;8243;49.048;8.396;2023-02-26T15:48:40;3.80;18.10
16271;DHT22;8243;49.048;8.396;2023-02-26T15:51:08;3.80;18.30
16271;DHT22;8243;49.048;8.396;2023-02-26T15:53:37;3.90;18.40
16271;DHT22;8243;49.048;8.396;2023-02-26T15:56:10;3.90;18.50
16271;DHT22;8243;49.048;8.396;2023-02-26T15:58:44;3.90;18.20
16271;DHT22;8243;49.048;8.396;2023-02-26T16:01:15;3.80;18.10
16271;DHT22;8243;49.048;8.396;2023-02-26T16:03:41;3.50;18.00
16271;DHT22;8243;49.048;8.396;2023-02-26T16:06:16;3.70;18.40
16271;DHT22;8243;49.048;8.396;2023-02-26T16:08:42;3.60;18.00
16271;DHT22;8243;49.048;8.396;2023-02-26T16:11:09;3.50;18.00
16271;DHT22;8243;49.048;8.396;2023-02-26T16:13:37;3.70;18.10
16271;DHT22;8243;49.048;8.396;2023-02-26T16:16:10;3.60;17.40
16271;DHT22;8243;49.048;8.396;2023-02-26T16:18:38;3.50;17.40
16271;DHT22;8243;49.048;8.396;2023-02-26T16:21:06;3.60;17.20
16271;DHT22;8243;49.048;8.396;2023-02-26T16:26:06;3.50;16.50
16271;DHT22;8243;49.048;8.396;2023-02-26T16:28:38;3.50;16.70
16271;DHT22;8243;49.048;8.396;2023-02-26T16:31:19;3.50;16.80
16271;DHT22;8243;49.048;8.396;2023-02-26T16:36:19;3.50;16.10
16271;DHT22;8243;49.048;8.396;2023-02-26T16:41:26;3.60;15.70
16271;DHT22;8243;49.048;8.396;2023-02-26T16:43:56;3.40;15.20
16271;DHT22;8243;49.048;8.396;2023-02-26T16:46:44;3.30;14.80
16271;DHT22;8243;49.048;8.396;2023-02-26T16:49:23;3.40;14.60
16271;DHT22;8243;49.048;8.396;2023-02-26T16:51:49;3.40;14.40
16271;DHT22;8243;49.048;8.396;2023-02-26T16:54:27;3.30;14.60
16271;DHT22;8243;49.048;8.396;2023-02-26T16:57:11;3.00;14.70
16271;DHT22;8243;49.048;8.396;2023-02-26T16:59:38;3.20;15.00
16271;DHT22;8243;49.048;8.396;2023-02-26T17:02:20;3.30;15.40
16271;DHT22;8243;49.048;8.396;2023-02-26T17:04:52;3.00;15.70
16271;DHT22;8243;49.048;8.396;2023-02-26T17:07:35;3.10;15.80
16271;DHT22;8243;49.048;8.396;2023-02-26T17:10:22;3.20;15.90
16271;DHT22;8243;49.048;8.396;2023-02-26T17:12:51;3.00;15.80
16271;DHT22;8243;49.048;8.396;2023-02-26T17:15:29;3.00;15.80
16271;DHT22;8243;49.048;8.396;2023-02-26T17:17:55;3.10;15.80
16271;DHT22;8243;49.048;8.396;2023-02-26T17:20:27;2.90;15.70
16271;DHT22;8243;49.048;8.396;2023-02-26T17:22:54;3.00;15.80
16271;DHT22;8243;49.048;8.396;2023-02-26T17:25:21;3.00;15.80
16271;DHT22;8243;49.048;8.396;2023-02-26T17:27:49;2.90;15.90
16271;DHT22;8243;49.048;8.396;2023-02-26T17:30:18;2.80;16.10
16271;DHT22;8243;49.048;8.396;2023-02-26T17:32:45;3.00;16.00
16271;DHT22;8243;49.048;8.396;2023-02-26T17:35:15;2.90;16.30
16271;DHT22;8243;49.048;8.396;2023-02-26T17:37:41;3.00;16.30
16271;DHT22;8243;49.048;8.396;2023-02-26T17:40:21;2.80;16.30
16271;DHT22;8243;49.048;8.396;2023-02-26T17:42:47;2.90;16.70
16271;DHT22;8243;49.048;8.396;2023-02-26T17:45:13;2.90;16.70
16271;DHT22;8243;49.048;8.396;2023-02-26T17:47:40;3.00;16.30
16271;DHT22;8243;49.048;8.396;2023-02-26T17:50:21;2.90;16.20
16271;DHT22;8243;49.048;8.396;2023-02-26T17:52:48;3.00;16.40
16271;DHT22;8243;49.048;8.396;2023-02-26T17:55:13;2.80;16.10
16271;DHT22;8243;49.048;8.396;2023-02-26T17:57:39;2.90;16.10
16271;DHT22;8243;49.048;8.396;2023-02-26T18:00:05;3.00;15.80
16271;DHT22;8243;49.048;8.396;2023-02-26T18:02:30;2.90;15.70
16271;DHT22;8243;49.048;8.396;2023-02-26T18:04:56;2.80;16.00
16271;DHT22;8243;49.048;8.396;2023-02-26T18:07:23;2.90;15.70
16271;DHT22;8243;49.048;8.396;2023-02-26T18:09:49;2.90;16.10
16271;DHT22;8243;49.048;8.396;2023-02-26T18:12:19;2.80;15.90
16271;DHT22;8243;49.048;8.396;2023-02-26T18:14:46;2.60;15.50
16271;DHT22;8243;49.048;8.396;2023-02-26T18:17:13;2.70;14.50
16271;DHT22;8243;49.048;8.396;2023-02-26T18:19:40;2.70;14.70
16271;DHT22;8243;49.048;8.396;2023-02-26T18:22:13;2.80;14.90
16271;DHT22;8243;49.048;8.396;2023-02-26T18:24:40;2.70;15.50
16271;DHT22;8243;49.048;8.396;2023-02-26T18:27:14;2.60;15.10
16271;DHT22;8243;49.048;8.396;2023-02-26T18:29:39;2.60;15.50
16271;DHT22;8243;49.048;8.396;2023-02-26T18:32:05;2.60;15.30
16271;DHT22;8243;49.048;8.396;2023-02-26T18:34:31;2.60;15.50
16271;DHT22;8243;49.048;8.396;2023-02-26T18:36:56;2.70;15.60
16271;DHT22;8243;49.048;8.396;2023-02-26T18:39:22;2.50;15.40
16271;DHT22;8243;49.048;8.396;2023-02-26T18:41:51;2.60;15.50
16271;DHT22;8243;49.048;8.396;2023-02-26T18:44:17;2.40;15.40
16271;DHT22;8243;49.048;8.396;2023-02-26T18:46:42;2.40;15.70